Time;durP1;ratioP1;P1;durP2;ratioP2;P2;SDS_P1;SDS_P2;PMS_P1;PMS_P2;Temp;Humidity;BMP_temperature;BMP_pressure;BME280_temperature;BME280_humidity;BME280_pressure;Samples;Min_cycle;Max_cycle;Signal;HPM_P1;HPM_P2
2023/06/23 00:08:09;;;;;;;11.52;8.88;;;17.20;99.90;;;;;;20413903;28;20045;-39
2023/06/23 00:18:32;;;;;;;11.43;8.13;;;17.00;99.90;;;;;;20418990;28;20043;-39
2023/06/23 00:28:53;;;;;;;10.85;8.50;;;16.90;99.90;;;;;;20414876;28;20046;-39
2023/06/23 00:39:15;;;;;;;17.70;11.90;;;16.80;99.90;;;;;;20400669;28;20125;-39
2023/06/23 00:49:36;;;;;;;18.17;12.77;;;16.70;99.90;;;;;;20404050;28;20055;-39
2023/06/23 00:59:58;;;;;;;18.05;11.63;;;16.50;99.90;;;;;;20408493;29;20047;-39
2023/06/23 01:10:31;;;;;;;18.92;14.18;;;16.40;99.90;;;;;;20412093;28;20050;-39
2023/06/23 01:20:57;;;;;;;19.67;13.40;;;16.40;99.90;;;;;;20413788;29;20039;-40
2023/06/23 01:31:31;;;;;;;22.05;16.23;;;16.30;99.90;;;;;;20412295;28;20047;-39
2023/06/23 01:42:14;;;;;;;22.55;17.08;;;16.30;99.90;;;;;;20411916;28;20036;-39
2023/06/23 01:52:38;;;;;;;25.90;18.05;;;16.20;99.90;;;;;;20413508;28;20055;-39
2023/06/23 02:03:01;;;;;;;27.65;19.45;;;16.20;99.90;;;;;;20423332;28;20436;-49
2023/06/23 02:13:25;;;;;;;33.97;22.92;;;16.00;99.90;;;;;;20425623;28;20637;-41
2023/06/23 02:23:48;;;;;;;33.08;21.77;;;16.00;99.90;;;;;;20418958;28;20044;-41
2023/06/23 02:34:09;;;;;;;32.67;22.92;;;16.00;99.90;;;;;;20419582;28;20047;-41
2023/06/23 02:44:35;;;;;;;30.27;21.50;;;16.00;99.90;;;;;;20420279;28;20495;-41
2023/06/23 02:54:58;;;;;;;32.22;21.70;;;16.00;99.90;;;;;;20422913;28;20046;-41
2023/06/23 03:05:21;;;;;;;28.60;20.80;;;15.90;99.90;;;;;;20418179;28;20047;-42
2023/06/23 03:15:43;;;;;;;37.70;24.60;;;15.90;99.90;;;;;;20424042;28;20031;-42
2023/06/23 03:26:08;;;;;;;39.05;26.40;;;16.00;99.90;;;;;;20417262;28;20118;-41
2023/06/23 03:36:30;;;;;;;40.28;26.13;;;16.00;99.90;;;;;;20414763;28;20046;-42
2023/06/23 03:46:55;;;;;;;39.97;24.88;;;15.90;99.90;;;;;;20414762;29;20498;-41
2023/06/23 03:57:20;;;;;;;36.80;24.27;;;15.80;99.90;;;;;;20415526;28;20040;-42
2023/06/23 04:07:44;;;;;;;38.63;23.80;;;15.80;99.90;;;;;;20403963;28;20050;-42
2023/06/23 04:18:08;;;;;;;38.03;23.48;;;15.90;99.90;;;;;;20419102;28;20024;-42
2023/06/23 04:28:33;;;;;;;41.97;23.58;;;16.00;99.90;;;;;;20414364;28;20036;-42
2023/06/23 04:39:03;;;;;;;41.05;23.75;;;16.20;99.90;;;;;;20420921;28;20050;-41
2023/06/23 04:49:28;;;;;;;48.78;25.80;;;16.30;99.90;;;;;;20418515;28;20097;-41
2023/06/23 04:59:53;;;;;;;51.08;28.20;;;16.60;99.90;;;;;;20416658;29;20039;-41
2023/06/23 05:10:16;;;;;;;48.60;27.23;;;16.90;99.90;;;;;;20409262;28;20083;-41
2023/06/23 05:20:40;;;;;;;40.40;23.45;;;17.10;99.90;;;;;;20420758;28;20041;-41
2023/06/23 05:31:03;;;;;;;41.47;23.95;;;17.20;99.90;;;;;;20410799;28;20050;-41
2023/06/23 05:41:25;;;;;;;43.38;24.98;;;17.40;99.90;;;;;;20413670;28;20078;-41
2023/06/23 05:51:54;;;;;;;47.75;27.42;;;17.60;99.90;;;;;;20414792;28;20408;-41
2023/06/23 06:02:24;;;;;;;41.33;26.73;;;17.90;99.90;;;;;;20414718;28;20055;-41
2023/06/23 06:12:46;;;;;;;37.25;24.00;;;18.20;99.90;;;;;;20423275;28;20039;-42
2023/06/23 06:23:08;;;;;;;36.25;22.52;;;18.40;99.90;;;;;;20414542;28;20086;-42
2023/06/23 06:33:31;;;;;;;28.65;18.80;;;18.70;99.90;;;;;;20412949;28;20063;-43
2023/06/23 06:43:52;;;;;;;31.35;21.33;;;18.90;99.90;;;;;;20438341;28;20055;-42
2023/06/23 06:54:16;;;;;;;26.10;17.48;;;18.90;99.90;;;;;;20424523;29;20419;-42
2023/06/23 07:04:39;;;;;;;24.92;16.98;;;19.10;99.90;;;;;;20418024;28;20142;-42
2023/06/23 07:15:02;;;;;;;20.83;14.60;;;19.20;99.90;;;;;;20425277;29;20052;-42
2023/06/23 07:25:23;;;;;;;17.15;12.20;;;19.40;83.00;;;;;;20415274;28;20046;-41
2023/06/23 07:35:44;;;;;;;18.40;12.90;;;19.60;37.00;;;;;;20426198;28;20042;-42
2023/06/23 07:46:06;;;;;;;16.63;11.45;;;19.80;21.40;;;;;;20419917;28;20047;-43
2023/06/23 07:56:27;;;;;;;14.93;10.60;;;19.90;4.00;;;;;;20415981;28;20051;-42
2023/06/23 08:06:49;;;;;;;12.77;9.32;;;19.90;1.00;;;;;;20414067;29;20047;-44
2023/06/23 08:17:10;;;;;;;8.90;7.53;;;20.20;1.00;;;;;;20421231;28;20142;-42
2023/06/23 08:27:31;;;;;;;9.68;5.97;;;20.50;1.00;;;;;;20394250;28;20052;-43
2023/06/23 08:37:53;;;;;;;7.78;5.50;;;20.90;1.00;;;;;;20412437;29;20043;-41
2023/06/23 08:48:16;;;;;;;6.85;5.07;;;21.00;1.00;;;;;;20407081;28;20154;-43
2023/06/23 08:58:40;;;;;;;7.18;4.70;;;21.30;1.00;;;;;;20407584;29;20047;-43
2023/06/23 09:09:01;;;;;;;6.22;4.43;;;21.70;1.00;;;;;;20409543;28;20122;-43
2023/06/23 09:19:24;;;;;;;4.85;3.70;;;22.10;1.00;;;;;;20404742;28;20069;-44
2023/06/23 09:30:00;;;;;;;7.32;4.22;;;22.40;1.00;;;;;;20398100;29;20050;-44
2023/06/23 09:40:28;;;;;;;5.32;4.00;;;22.70;1.00;;;;;;20401458;28;20256;-42
2023/06/23 09:50:59;;;;;;;;;;;22.80;1.00;;;;;;20403781;28;20940;-44
2023/06/23 10:01:20;;;;;;;5.25;3.70;;;23.10;1.00;;;;;;20406947;29;20068;-44
2023/06/23 10:11:42;;;;;;;5.00;3.45;;;23.40;1.00;;;;;;20416758;28;20050;-41
2023/06/23 10:22:03;;;;;;;7.95;5.70;;;23.50;1.00;;;;;;20418730;28;20071;-42
2023/06/23 10:32:30;;;;;;;6.85;5.07;;;23.80;1.00;;;;;;20417489;28;20047;-43
2023/06/23 10:42:56;;;;;;;6.50;3.53;;;24.10;1.00;;;;;;20427158;28;21211;-41
2023/06/23 10:53:18;;;;;;;4.65;3.47;;;24.20;1.00;;;;;;20423123;29;20062;-43
2023/06/23 11:03:40;;;;;;;4.32;3.20;;;24.20;1.00;;;;;;20426004;28;20065;-41
2023/06/23 11:14:01;;;;;;;5.15;2.80;;;24.30;1.00;;;;;;20440052;28;20066;-41
2023/06/23 11:24:25;;;;;;;4.22;2.63;;;24.40;1.00;;;;;;20424829;28;20258;-41
2023/06/23 11:34:52;;;;;;;3.83;2.60;;;24.70;1.00;;;;;;20404620;28;20229;-41
2023/06/23 11:45:13;;;;;;;6.03;3.63;;;24.70;1.00;;;;;;20422331;29;20173;-41
2023/06/23 11:55:34;;;;;;;4.50;3.13;;;25.40;1.00;;;;;;20412949;28;20053;-41
2023/06/23 12:05:56;;;;;;;4.88;2.83;;;25.90;1.00;;;;;;20412708;29;20086;-41
2023/06/23 12:16:18;;;;;;;6.40;3.63;;;25.80;1.00;;;;;;20454128;23;20075;-41
2023/06/23 12:26:42;;;;;;;4.97;2.85;;;25.90;1.00;;;;;;20495479;28;20035;-41
2023/06/23 12:37:06;;;;;;;4.72;3.05;;;26.20;1.00;;;;;;20492657;28;20047;-41
2023/06/23 12:47:27;;;;;;;3.67;3.10;;;26.10;1.00;;;;;;20493899;28;20034;-41
2023/06/23 12:57:49;;;;;;;5.00;3.00;;;25.80;1.00;;;;;;20491581;28;20031;-40
2023/06/23 13:08:13;;;;;;;5.70;3.20;;;26.10;1.00;;;;;;20484421;28;20058;-40
2023/06/23 13:18:35;;;;;;;6.50;3.83;;;26.20;1.00;;;;;;20482553;28;20047;-41
2023/06/23 13:28:56;;;;;;;4.63;2.97;;;26.10;1.00;;;;;;20478643;28;20075;-41
2023/06/23 13:39:18;;;;;;;3.30;2.20;;;26.30;1.00;;;;;;20492667;28;20042;-41
2023/06/23 13:49:40;;;;;;;4.00;2.10;;;26.50;1.00;;;;;;20494533;28;20034;-41
2023/06/23 14:00:04;;;;;;;4.05;2.50;;;26.40;1.00;;;;;;20522230;28;20639;-41
2023/06/23 14:10:25;;;;;;;4.25;2.33;;;26.00;1.00;;;;;;20519479;28;20039;-40
2023/06/23 14:20:47;;;;;;;3.75;2.30;;;26.30;1.00;;;;;;20523154;28;20073;-41
2023/06/23 14:31:08;;;;;;;5.63;2.58;;;25.80;1.00;;;;;;20519845;28;20058;-40
2023/06/23 14:41:29;;;;;;;4.55;2.70;;;26.00;1.00;;;;;;20518991;28;20049;-41
2023/06/23 14:51:51;;;;;;;2.85;2.10;;;26.00;1.00;;;;;;20516254;28;20050;-40
2023/06/23 15:02:12;;;;;;;3.20;2.33;;;25.90;1.00;;;;;;20513798;28;20058;-41
2023/06/23 15:12:33;;;;;;;5.82;2.50;;;25.90;1.00;;;;;;20505222;28;20379;-41
2023/06/23 15:22:55;;;;;;;4.60;3.05;;;26.00;1.00;;;;;;20488916;28;20141;-40
2023/06/23 15:33:16;;;;;;;7.68;5.55;;;25.80;1.00;;;;;;20498169;28;20061;-40
2023/06/23 15:43:37;;;;;;;4.80;2.40;;;25.50;1.00;;;;;;20490079;28;20054;-40
2023/06/23 15:53:59;;;;;;;3.42;2.25;;;25.50;1.00;;;;;;20512003;28;20038;-40
2023/06/23 16:04:20;;;;;;;3.20;2.20;;;25.30;1.00;;;;;;20516069;28;20042;-40
2023/06/23 16:14:42;;;;;;;3.30;2.28;;;25.10;1.00;;;;;;20503435;28;20043;-40
2023/06/23 16:25:04;;;;;;;3.47;2.25;;;24.70;1.00;;;;;;20509154;28;20043;-40
2023/06/23 16:35:25;;;;;;;4.13;2.55;;;24.70;1.00;;;;;;20495107;28;20477;-40
2023/06/23 16:45:47;;;;;;;3.55;2.38;;;24.70;1.00;;;;;;20503100;28;20156;-40
2023/06/23 16:56:09;;;;;;;3.08;2.08;;;24.70;1.00;;;;;;20491783;28;20092;-41
2023/06/23 17:06:30;;;;;;;3.55;2.30;;;24.40;1.00;;;;;;20452589;28;20698;-40
2023/06/23 17:16:52;;;;;;;3.28;2.05;;;24.40;1.00;;;;;;20503251;28;20094;-40
2023/06/23 17:27:13;;;;;;;3.13;2.00;;;24.00;1.00;;;;;;20494425;28;20047;-41
2023/06/23 17:37:34;;;;;;;3.88;2.30;;;23.80;1.00;;;;;;20492911;28;20035;-41
2023/06/23 17:47:56;;;;;;;5.15;2.60;;;23.70;1.00;;;;;;20502713;28;20560;-41
2023/06/23 17:58:17;;;;;;;3.15;2.10;;;23.80;1.00;;;;;;20505543;28;20043;-41
2023/06/23 18:08:38;;;;;;;3.53;2.17;;;23.70;1.00;;;;;;20496172;28;20498;-42
2023/06/23 18:19:00;;;;;;;3.55;2.10;;;23.50;1.00;;;;;;20496359;28;20057;-41
2023/06/23 18:29:22;;;;;;;2.80;1.73;;;23.20;1.00;;;;;;20490812;28;20472;-41
2023/06/23 18:39:43;;;;;;;3.53;2.05;;;22.90;1.00;;;;;;20497285;28;20053;-41
2023/06/23 18:50:05;;;;;;;3.60;2.30;;;22.70;1.00;;;;;;20501824;28;20073;-41
2023/06/23 19:00:28;;;;;;;3.95;2.00;;;22.50;1.00;;;;;;20504531;28;20046;-41
2023/06/23 19:10:49;;;;;;;3.35;2.20;;;22.50;1.00;;;;;;20510129;28;20035;-41
2023/06/23 19:21:11;;;;;;;3.97;2.50;;;22.40;1.00;;;;;;20503875;28;20039;-41
2023/06/23 19:31:32;;;;;;;3.40;2.30;;;22.20;1.00;;;;;;20499770;28;20054;-41
2023/06/23 19:41:54;;;;;;;4.10;2.40;;;22.10;1.00;;;;;;20502828;28;20536;-41
2023/06/23 19:52:16;;;;;;;3.78;2.17;;;21.90;1.00;;;;;;20500426;28;20046;-42
2023/06/23 20:02:37;;;;;;;3.95;2.65;;;21.80;1.00;;;;;;20495544;28;20035;-42
2023/06/23 20:13:01;;;;;;;4.45;2.67;;;21.60;1.00;;;;;;20499705;28;20418;-42
2023/06/23 20:23:23;;;;;;;3.38;2.50;;;21.30;1.00;;;;;;20499992;28;20057;-43
2023/06/23 20:33:44;;;;;;;4.15;2.75;;;21.00;1.00;;;;;;20496795;28;20042;-43
2023/06/23 20:44:06;;;;;;;4.47;2.80;;;20.70;1.00;;;;;;20488922;28;20031;-44
2023/06/23 20:54:28;;;;;;;5.00;3.30;;;20.50;1.00;;;;;;20496515;28;20042;-43
2023/06/23 21:04:49;;;;;;;5.07;3.40;;;20.30;1.00;;;;;;20492720;28;20073;-43
2023/06/23 21:15:11;;;;;;;5.72;3.05;;;20.20;1.00;;;;;;20502150;28;20054;-42
2023/06/23 21:25:32;;;;;;;6.30;3.35;;;20.00;1.00;;;;;;20491217;28;20138;-42
2023/06/23 21:35:54;;;;;;;7.05;3.40;;;19.90;1.00;;;;;;20487397;28;20173;-42
2023/06/23 21:46:15;;;;;;;5.88;3.50;;;19.80;1.00;;;;;;20493120;28;20139;-42
2023/06/23 21:56:37;;;;;;;4.82;3.10;;;19.70;1.00;;;;;;20494267;28;20038;-42
2023/06/23 22:06:58;;;;;;;7.18;3.92;;;19.50;1.00;;;;;;20494291;28;20039;-42
2023/06/23 22:17:20;;;;;;;5.05;3.50;;;19.40;1.00;;;;;;20506740;28;20116;-41
2023/06/23 22:27:41;;;;;;;7.22;4.07;;;19.30;1.00;;;;;;20512407;28;20054;-42
2023/06/23 22:38:02;;;;;;;5.93;3.80;;;19.10;1.00;;;;;;20517533;28;20053;-43
2023/06/23 22:48:24;;;;;;;6.20;4.32;;;19.00;1.00;;;;;;20507464;28;20410;-43
2023/06/23 22:58:45;;;;;;;6.22;4.47;;;19.00;1.00;;;;;;20521451;28;20144;-42
2023/06/23 23:09:07;;;;;;;8.10;4.70;;;19.00;1.00;;;;;;20518710;28;20398;-42
2023/06/23 23:19:29;;;;;;;5.82;4.57;;;19.00;1.00;;;;;;20521044;28;20558;-42
2023/06/23 23:29:53;;;;;;;6.82;5.13;;;19.00;1.00;;;;;;20515993;28;20039;-42
2023/06/23 23:40:15;;;;;;;7.43;5.55;;;19.00;1.00;;;;;;20514713;28;20069;-42
2023/06/23 23:50:36;;;;;;;8.15;5.40;;;18.90;1.00;;;;;;20515838;28;22639;-42
